ADDS METAR Data INFO
IDs: Format: Raw Decoded Include TAF

Data at: 1317 UTC 25 Feb 2018

KBHM 251307Z 33004KT 4SM RA BR FEW038 BKN080 OVC090 11/09 A3013 RMK AO2 P0003 T01060089 $
KBHM 251259Z 31005KT 2 1/2SM RA BR FEW038 BKN050 OVC070 11/09 A3013 RMK AO2 P0002 T01060089 $
KBHM 251253Z 33005KT 1 1/2SM +RA BR FEW040 OVC048 11/09 A3012 RMK AO2 SLP197 P0022 T01060089 $
KBHM 251247Z 31006KT 1 3/4SM +RA BR FEW040 OVC048 11/09 A3013 RMK AO2 P0018 $
KBHM 251236Z 35007KT 2 1/2SM RA BR OVC060 11/09 A3012 RMK AO2 VIS 2V4 P0014 T01110094 $
KBHM 251153Z 34009KT 4SM RA BR FEW009 BKN038 OVC060 12/11 A3011 RMK AO2 PK WND 34026/1104 SLP192 P0015 60051 70061 T01220106 10211 20122 51041 $
KBHM 251109Z 32016G26KT 6SM -RA BR FEW008 SCT013 OVC018 13/11 A3009 RMK AO2 PK WND 34026/1104 P0008 T01280111 $
KBHM 251100Z 33015KT 2 1/2SM +RA BR FEW008 OVC015 13/12 A3008 RMK AO2 P0006 T01330122 $
KBHM 251053Z 32011G20KT 3SM +RA BR SCT008 BKN015 OVC035 14/13 A3007 RMK AO2 WSHFT 0938 RAB01 SLP179 P0036 T01390128 $
KBHM 251049Z 32011G20KT 3SM RA BR SCT008 BKN018 OVC035 14/13 A3007 RMK AO2 WSHFT 0938 RAB01 P0035 $
KBHM 251034Z 32012KT 4SM RA BR BKN009 BKN013 OVC036 14/13 A3005 RMK AO2 WSHFT 0938 RAB01 P0029 T01440133 $
KBHM 251024Z 33009KT 3SM -RA BR SCT009 BKN018 OVC036 14/13 A3004 RMK AO2 WSHFT 0938 RAB01 P0027 T01440133 $
KBHM 251010Z 35012KT 2SM +RA BR SCT007 BKN014 OVC028 15/14 A3003 RMK AO2 WSHFT 0938 VIS 1 1/4V5 RAB01 P0016 T01500144 $
KBHM 251005Z 33012G20KT 1 3/4SM +RA BR FEW010 BKN014 OVC021 16/14 A3002 RMK AO2 WSHFT 0938 RAB01 P0012 T01560139 $
KBHM 250957Z 10SM BKN014 OVC021 17/15 A3003 RMK AO2 WSHFT 0938 PRESRR T01720150 $
KBHM 250951Z 34014KT 10SM BKN016 OVC022 18/15 A2999 RMK AO2 WSHFT 0936 SLP148 T01780150 $
KBHM 250950Z 33015KT 10SM BKN016 OVC022 18/16 A2999 RMK AO2 WSHFT 0936 $
KBHM 250853Z 20014KT 10SM BKN020 BKN050 OVC095 21/18 A3000 RMK AO2 SLP150 T02110178 58007 $
KBHM 250753Z 21013G21KT 10SM OVC018 21/18 A3002 RMK AO2 PK WND 20026/0709 SLP157 T02110178 $
KBHM 250653Z 20015G24KT 10SM BKN019 OVC026 21/18 A3002 RMK AO2 PK WND 21026/0631 SLP159 T02060178 $
KBHM 250622Z 21018G23KT 10SM BKN021 OVC100 21/17 A3003 RMK AO2 T02060172 $
KBHM 250553Z 19019G26KT 10SM BKN100 21/17 A3002 RMK AO2 PK WND 19026/0553 SLP158 60002 T02060172 10228 20200 402440194 58001 $
KBHM 250453Z 19016G20KT 10SM SCT085 21/17 A3002 RMK AO2 SLP160 T02060167 $
KBHM 250353Z 19014KT 10SM SCT085 21/17 A3003 RMK AO2 SLP164 T02060167 $
KBHM 250253Z 19011G19KT 10SM FEW100 20/17 A3002 RMK AO2 SLP160 60002 T02000172 51008 $
KBHM 250153Z 18011KT 10SM FEW060 OVC080 20/17 A3001 RMK AO2 RAE00 SLP157 P0000 T02000172 $
KBHM 250053Z 20009G19KT 10SM -RA FEW026 BKN055 OVC070 20/17 A3002 RMK AO2 PK WND 22030/0032 RAB26 SLP161 P0002 T02000172 $
KBHM 242353Z 16006KT 10SM FEW075 SCT090 BKN200 22/17 A3000 RMK AO2 SLP152 60008 T02220172 10244 20194 58009 $
KBHM 242253Z 00000KT 10SM FEW070 SCT080 BKN200 21/18 A3000 RMK AO2 RAE13 SLP152 P0008 T02060183 $
KBHM 242153Z 24013KT 6SM -RA FEW015 BKN034 OVC060 21/17 A3003 RMK AO2 RAB50 SLP163 P0000 T02060172 $
KBHM 242053Z 15007KT 10SM OVC065 22/17 A3003 RMK AO2 RAE27 SLP160 P0000 60000 T02220172 56035 $
KBHM 241953Z 20015KT 10SM -RA BKN039 BKN049 OVC070 23/16 A3005 RMK AO2 RAB49 SLP168 P0000 T02330161 $
KBHM 241853Z 19011KT 10SM FEW028 BKN041 OVC070 24/16 A3008 RMK AO2 SLP180 T02390161 $
KBHM 241818Z 21010KT 10SM SCT024 BKN030 OVC039 23/16 A3011 RMK AO2 T02280161 $
KBHM 241753Z 19011KT 10SM BKN023 BKN028 OVC037 23/16 A3013 RMK AO2 SLP196 60000 T02280161 10244 20194 58019 $
KBHM 241722Z 21011KT 10SM BKN026 OVC034 23/17 A3015 RMK AO2 T02280167 $
KBHM 241701Z 17008KT 10SM FEW026 SCT031 BKN040 23/17 A3015 RMK AO2 T02330167 $
KBHM 241653Z 18011KT 10SM BKN025 BKN033 OVC060 24/17 A3015 RMK AO2 RAE1559 SLP203 BINOVC P0000 T02390167 $
KBHM 241553Z 21009KT 9SM -RA OVC022 21/17 A3018 RMK AO2 RAB50 SLP213 P0000 T02110172 $
KBHM 241511Z 18014KT 10SM BKN020 BKN024 OVC080 22/16 A3019 RMK AO2 T02170161 $
KBHM 241453Z 20010KT 10SM FEW018 FEW050 OVC080 21/16 A3019 RMK AO2 SLP216 T02110161 53008 $
KBHM 241353Z 18010KT 10SM FEW015 BKN075 BKN120 21/17 A3017 RMK AO2 SLP211 T02110167 $
KBHM 241253Z 19006KT 10SM FEW016 OVC070 20/16 A3017 RMK AO2 SLP209 T02000161 $
KBHM 241153Z 19011KT 10SM OVC080 20/16 A3016 RMK AO2 SLP206 T02000161 10217 20200 55003 $
KBHM 241053Z 19012G18KT 10SM SCT050 BKN100 21/15 A3015 RMK AO2 SLP204 T02060150 $
KBHM 240953Z 19012KT 10SM OVC085 21/15 A3015 RMK AO2 SLP202 T02110150 $
KBHM 240853Z 18008KT 10SM FEW055 OVC085 21/16 A3017 RMK AO2 SLP208 T02110161 $
KBHM 240753Z 19010KT 10SM OVC110 21/17 A3019 RMK AO2 SLP215 T02110167 $
KBHM 240653Z 19010KT 10SM OVC110 21/17 A3020 RMK A02 SLP220 T02110167
KBHM 240553Z 16007KT 10SM FEW045 BKN100 21/16 A3020 RMK A02 SLP219 T02110156 10228 20183 402720156 58012
KBHM 240453Z 16005KT 10SM BKN060 OVC080 21/14 A3022 RMK AO2 SLP227 T02110144
KBHM 240353Z 00000KT 10SM SCT055 BKN075 OVC090 18/14 A3023 RMK AO2 SLP231 T01830139
KBHM 240253Z 00000KT 10SM SCT150 18/14 A3024 RMK AO2 SLP234 T01830139 55006
KBHM 240153Z 00000KT 10SM SCT150 19/13 A3023 RMK AO2 SLP232 T01890133